Terminal Aerodrome Forecast
Issued by NWS

Home | Current Version | Previous Version | Text Only | Print | Product List | Glossary Off
Versions: 1 2 3 4 5 6 7 8 9 10 11 12 13

000
FTUS43 KMPX 221735
TAFRWF
TAF
KRWF 221735Z 2218/2318 30008KT P6SM SCT150
     FM230100 31011KT P6SM BKN070
     FM230300 32010KT P6SM BKN020
     FM230700 34011KT P6SM OVC010
     FM231400 05009KT P6SM OVC020=

USA.gov is the U.S. government's official web portal to all federal, state and local government web resources and services.